Tiempo atmosférico en la estación meteorológica de Navarredonda De Gredos, Ávila (1550 m.)



Fecha
DESCASC
Temp. máxima en grados centígrados (hora)
DESCASC
Temp. mínima en grados centígrados (hora)
DESCASC
Temp. media en grados centígrados
DESCASC
Racha de viento máxima en m/sg (hora)
DESCASC
Velocidad máxima media en intervalos de 10 minutos(hora)
DESCASC
Precipitaciones diarias en mm
DESCASC
Precipitaciones de 00:00 a 06:00 en mm
DESCASC
Precipitaciones de 06:00 a 12:00 en mm
DESCASC
Precipitaciones de 12:00 a 18:00 en mm
DESCASC
Precipitaciones de 18:00 a 24:00 en mm
DESCASC
15-08-2019 28.7 (17:40) 11.5 (06:40) 20.1 6.11 (13:50) 2.5 (14:00) 0 0 0 0 0
14-08-2019 28.3 (16:10) 8.5 (00:00) 18.4 6.67 (16:40) 2.22 (11:50) 0 0 0 0 0
13-08-2019 25.1 (16:20) 5.2 (00:00) 15.2 6.94 (18:50) 2.22 (18:30) 0 0 0 0 0
12-08-2019 20.4 (16:40) 3.3 (00:00) 11.8 6.67 (15:50) 2.5 (17:20) 0 0 0 0 0
11-08-2019 22.6 (14:00) 8.1 (00:00) 15.4 6.39 (16:40) 2.22 (16:00) 0 0 0 0 0
10-08-2019 24.5 (16:40) 7 (00:00) 15.8 9.44 (16:20) 3.06 (15:00) 0.6 0.2 0.1 0.2 0.1
09-08-2019 26.3 (13:50) 11.7 (00:00) 19 10.28 (17:40) 4.44 (14:30) 0.4 0 0 0 0.4
08-08-2019 26.9 (15:40) 9.7 (00:00) 18.3 10.28 (19:30) 3.89 (19:30) 0.4 0.1 0.2 0.1 0
07-08-2019 19.5 (12:30) 13 (00:00) 16.3 7.78 (17:10) 2.22 (19:20) 0.7 0 0 0.4 0.3
06-08-2019 30 (14:40) 10.5 (00:00) 20.3 8.33 (15:20) 4.17 (15:00) 0 0 0 0 0
05-08-2019 29.4 (15:40) 11.3 (00:00) 20.3 8.06 (14:30) 3.33 (15:00) 0 0 0 0 0
04-08-2019 29.2 (18:00) 10.8 (00:00) 20 9.44 (12:40) 4.72 (15:30) 0 0 0 0 0
03-08-2019 28.8 (17:30) 11.9 (00:00) 20.3 9.44 (16:20) 3.61 (15:30) 0 0 0 0 0
02-08-2019 27.7 (16:20) 9.7 (00:00) 18.7 8.33 (16:50) 3.61 (13:50) 0 0 0 0 0
01-08-2019 27.9 (17:20) 11.5 (00:00) 19.7 6.67 (17:30) 1.67 (14:20) 0 0 0 0 0
31-07-2019 26.7 (18:10) 9 (00:00) 17.9 8.61 (15:10) 3.89 (15:10) 0 0 0 0 0
30-07-2019 24.3 (18:40) 3.9 (00:00) 14.1 7.22 (16:30) 2.78 (17:10) 0 0 0 0 0
29-07-2019 26.5 (15:40) 8.9 (00:00) 17.7 7.22 (20:20) 2.22 (19:20) 0 0 0 0 0
28-07-2019 25.1 (16:00) 6.8 (00:00) 16 6.67 (17:20) 1.67 (13:20) 0 0 0 0 0
27-07-2019 19.8 (17:00) 7.6 (00:00) 13.7 8.33 (14:40) 2.22 (14:10) 0.3 0 0.1 0.2 0
26-07-2019 24.1 (14:10) 11.7 (00:00) 17.9 7.22 (15:00) 2.22 (13:00) 0 0 0 0 0
25-07-2019 27 (14:20) 14.2 (00:00) 20.6 10 (16:00) 3.89 (17:30) 0 0 0 0 0
24-07-2019 28.4 (18:20) 14.5 (00:00) 21.4 10 (16:30) 3.89 (15:10) 0 0 0 0 0
23-07-2019 27.2 (17:30) 13.1 (00:00) 20.2 12.78 (10:40) 5.83 (20:40) 5.5 1.1 0.5 3.2 0.7
22-07-2019 29 (14:10) 15.2 (00:00) 22.1 16.94 (23:00) 7.5 (23:00) 0.5 0 0 0 0.5
21-07-2019 30.3 (14:20) 13.4 (00:00) 21.8 8.61 (17:10) 3.61 (15:50) 0 0 0 0 0
20-07-2019 29.9 (15:30) 12.2 (00:00) 21 10 (11:20) 3.89 (13:30) 0 0 0 0 0
19-07-2019 28.8 (15:30) 13 (00:00) 20.9 9.72 (16:10) 4.44 (16:00) 0 0 0 0 0

Gráficas

Temp. máximas Temp. mínimas Temp. medias Precipitaciones Rachas de viento máximas Velocidades máximas media en intervalos de 10 minutos

Datos horarios

Fecha y hora oficial Temperatura (ºC) Velocidad del viento (km/h) Dirección del viento Racha (km/h) Dirección de racha Precipitación (mm) Presión (hPa) Tendencia (hPa) Humedad (%)
2019-08-17 23:00:00 17.5 3 Norte 8 Nordeste 0 850.1 0.5 25
2019-08-17 22:00:00 20.1 0 Calma 8 Oeste 0 849.8 -0.2 23
2019-08-17 21:00:00 22.5 3 Sudoeste 20 Sudoeste 0 849.8 -0.6 20
2019-08-17 20:00:00 25.4 5 Sudoeste 22 Sur 0 849.6 -1.1 17
2019-08-17 19:00:00 27.3 8 Sur 26 Sur 0 850 -1 16
2019-08-17 18:00:00 29.3 7 Sur 25 Sudoeste 0 850.4 -0.8 16
2019-08-17 17:00:00 29.3 7 Sur 26 Sur 0 850.7 -0.7 17
2019-08-17 16:00:00 29.4 6 Sur 24 Sur 0 851 -0.4 16
2019-08-17 15:00:00 29.8 6 Sudoeste 27 Sudoeste 0 851.2 -0.4 18
2019-08-17 14:00:00 30 6 Sudoeste 31 Sur 0 851.4 -0.3 18
2019-08-17 13:00:00 28.3 9 Sur 27 Sur 0 851.4 0.1 19
2019-08-17 12:00:00 27.5 10 Sur 27 Sur 0 851.6 0.3 21
2019-08-17 11:00:00 25.8 4 Sudoeste 13 Sudoeste 0 851.7 0.7 31
2019-08-17 10:00:00 22.6 4 Sudeste 7 Este 0 851.3 0.2 40
2019-08-17 09:00:00 15.1 0 Calma 8 Norte 0 851.3 0.2 57
2019-08-17 08:00:00 12.4 4 Norte 7 Norte 0 851 -0.6 59
2019-08-17 07:00:00 12.6 4 Nordeste 7 Nordeste 0 851.1 -0.7 59
2019-08-17 06:00:00 12.2 5 Norte 7 Nordeste 0 851.1 -1 60
2019-08-17 05:00:00 13 3 Norte 8 Nordeste 0 851.6 -0.8 55
2019-08-17 04:00:00 12.8 5 Nordeste 6 Nordeste 0 851.8 -0.5 50
2019-08-17 03:00:00 14.2 0 Calma 6 Nordeste 0 852.1 -0.2 43
2019-08-17 02:00:00 14.6 3 Norte 5 Noroeste 0 852.4 0 39
2019-08-17 01:00:00 15.7 0 Calma 5 Oeste 0 852.3 0.4 35
2019-08-17 00:00:00 17.5 2 Oeste 5 Oeste 0 852.3 0.8 32
2019-08-16 23:00:00 19.1 4 Noroeste 13 Sudoeste 0 852.4 1.1 32
2019-08-16 22:00:00 20.8 0 Calma 10 Noroeste 0 851.9 0.3 32
2019-08-16 21:00:00 23.8 2 Oeste 14 Noroeste 0 851.5 -0.2 30
2019-08-16 20:00:00 25.7 3 Oeste 22 Oeste 0 851.3 -0.5 28
2019-08-16 19:00:00 28.3 3 Oeste 24 Norte 0 851.6 -0.5 25
2019-08-16 18:00:00 28.8 8 Norte 24 Oeste 0 851.7 -0.5 26
2019-08-16 17:00:00 29.5 4 Noroeste 23 Sudoeste 0 851.8 -0.5 25
2019-08-16 16:00:00 29.5 6 Sudoeste 30 Sudeste 0 852.1 -0.5 27
2019-08-16 15:00:00 27.6 10 Sur 27 Sudeste 0 852.2 -0.5 28
2019-08-16 14:00:00 28.7 7 Sudoeste 28 Sudoeste 0 852.3 -0.5 28
2019-08-16 13:00:00 26.9 10 Sudeste 29 Sur 0 852.6 0.2 31
2019-08-16 12:00:00 27 5 Sur 15 Sur 0 852.7 0.3 31
2019-08-16 11:00:00 24.8 3 Sur 11 Sudeste 0 852.8 0.5 36
2019-08-16 10:00:00 21.5 0 Calma 5 Sudeste 0 852.4 0.4 48
2019-08-16 09:00:00 16.1 2 Nordeste 7 Norte 0 852.4 0.3 62
2019-08-16 08:00:00 12.8 3 Norte 6 Nordeste 0 852.3 -0.1 68
2019-08-16 07:00:00 12.8 4 Nordeste 7 Norte 0 852 -0.7 72
2019-08-16 06:00:00 12.4 2 Este 7 Norte 0 852.1 -0.5 71
2019-08-16 05:00:00 13 3 Nordeste 7 Norte 0 852.4 -1 65
2019-08-16 04:00:00 13.2 0 Calma 6 Noroeste 0 852.7 -0.7 61
2019-08-16 03:00:00 13.8 5 Norte 7 Norte 0 852.6 -0.8 56
2019-08-16 02:00:00 14.1 0 Calma 5 Noroeste 0 853.4 -0.1 52
2019-08-16 01:00:00 15.3 2 Norte 6 Norte 0 853.4 0.2 48
2019-08-16 00:00:00 16.2 0 Calma 6 Norte 0 853.4 0.6 44
2019-08-15 23:00:00 17.9 3 Este 7 Sur 0 853.5 0.8 40
2019-08-15 22:00:00 19.6 3 Sudeste 16 Norte 0 853.2 0.4 36
2019-08-15 21:00:00 22.6 5 Noroeste 18 Norte 0 852.8 0.2 31
2019-08-15 20:00:00 25 4 Norte 21 Noroeste 0 852.7 -0.3 25
2019-08-15 19:00:00 27.6 4 Noroeste 17 Norte 0 852.8 -0.5 25
2019-08-15 18:00:00 27.9 2 Norte 20 Noroeste 0 852.6 -0.8 26
2019-08-15 17:00:00 26.4 4 Sudoeste 15 Nordeste 0 853 -0.7 31
2019-08-15 16:00:00 25.5 3 Nordeste 15 Norte 0 853.3 -0.5 33
2019-08-15 15:00:00 25.4 4 Norte 19 Sur 0 853.4 -0.5 35
2019-08-15 14:00:00 26.1 9 Sudeste 22 Sudeste 0 853.7 -0.1 33
2019-08-15 13:00:00 26.2 3 Sur 15 Sudoeste 0 853.8 0.1 34
2019-08-15 12:00:00 24.7 3 Sudeste 14 Sur 0 853.9 0.3 37
2019-08-15 11:00:00 22.7 0 Calma 8 Sur 0 853.8 0.1 49
2019-08-15 10:00:00 18.9 3 Sudeste 6 Sudeste 0 853.7 0.1 66
2019-08-15 09:00:00 14.3 0 Calma 5 Sudeste 0 853.6 0.2 82
2019-08-15 08:00:00 11.8 0 Calma 3 Norte 0 853.7 0.4 88
2019-08-15 07:00:00 11.8 0 Calma 6 Norte 0 853.6 0 89
2019-08-15 06:00:00 11.8 0 Calma 6 Norte 0 853.4 -0.5 86
2019-08-15 05:00:00 12.4 4 Norte 6 Norte 0 853.3 -0.9 79
2019-08-15 04:00:00 13.7 2 Oeste 6 Oeste 0 853.6 -0.6 72
2019-08-15 03:00:00 14 4 Oeste 6 Oeste 0 853.9 -0.2 59
2019-08-15 02:00:00 14.1 2 Sur 5 Noroeste 0 854.2 0.2 53
2019-08-15 01:00:00 14.7 4 Noroeste 6 Noroeste 0 854.2 0.7 48
2019-08-15 00:00:00 15.9 3 Noroeste 15 Sudoeste 0 854.1 0.9 43
2019-08-14 23:00:00 17 3 Este 9 Sudeste 0 854 1.1 37
2019-08-14 22:00:00 18.6 0 Calma 9 Noroeste 0 853.5 0.5 32
2019-08-14 21:00:00 21.6 2 Noroeste 18 Noroeste 0 853.2 -0.2 27
2019-08-14 20:00:00 23.9 4 Noroeste 17 Noroeste 0 852.9 -0.5 24
2019-08-14 19:00:00 26.1 4 Noroeste 18 Norte 0 853 -0.4 21
2019-08-14 18:00:00 26.6 4 Noroeste 20 Oeste 0 853.4 -0.3 21
2019-08-14 17:00:00 27.8 5 Noroeste 24 Oeste 0 853.4 -0.5 20
2019-08-14 16:00:00 27.4 4 Noroeste 23 Sudoeste 0 853.4 -0.5 21
2019-08-14 15:00:00 27.7 4 Sudoeste 17 Oeste 0 853.7 -0.4 22
2019-08-14 14:00:00 26 4 Sudoeste 18 Oeste 0 853.9 0.1 24
2019-08-14 13:00:00 25.2 0 Calma 16 Oeste 0 853.9 0.6 27
2019-08-14 12:00:00 24.3 4 Sudoeste 19 Sudoeste 0 854.1 0.6 29
2019-08-14 11:00:00 22 4 Oeste 12 Sudoeste 0 853.8 0.7 32
2019-08-14 10:00:00 17.9 3 Sur 7 Sudoeste 0 853.3 0.6 41
2019-08-14 09:00:00 11.8 0 Calma 5 Norte 0 853.5 0.7 51
2019-08-14 08:00:00 8.9 2 Nordeste 8 Nordeste 0 853.1 0.3 51
2019-08-14 07:00:00 9.2 3 Norte 9 Nordeste 0 852.7 -0.5 48
2019-08-14 06:00:00 9.1 5 Nordeste 7 Norte 0 852.8 -0.4 48
2019-08-14 05:00:00 9.4 2 Este 7 Norte 0 852.8 -0.7 47
2019-08-14 04:00:00 9.4 4 Este 7 Nordeste 0 853.2 -0.3 45
2019-08-14 03:00:00 9.5 4 Nordeste 7 Nordeste 0 853.2 -0.1 44
2019-08-14 02:00:00 9.7 5 Nordeste 8 Norte 0 853.5 0.3 43
2019-08-14 01:00:00 10.1 3 Nordeste 8 Norte 0 853.5 0.7 40
2019-08-14 00:00:00 11.7 3 Nordeste 11 Nordeste 0 853.3 1.2 36
2019-08-13 23:00:00 13.3 3 Este 12 Sur 0 853.2 1.3 31
2019-08-13 22:00:00 15.3 0 Calma 16 Norte 0 852.8 0.8 28
2019-08-13 21:00:00 18.2 4 Norte 16 Nordeste 0 852.1 0.1 25
2019-08-13 20:00:00 20.7 4 Noroeste 18 Noroeste 0 851.9 -0.3 24
2019-08-13 19:00:00 23.1 4 Noroeste 25 Norte 0 852 -0.2 23
2019-08-13 18:00:00 24.2 5 Noroeste 21 Oeste 0 852 -0.4 21
2019-08-13 17:00:00 25 8 Noroeste 19 Noroeste 0 852.2 -0.3 21
2019-08-13 16:00:00 24.7 3 Oeste 19 Oeste 0 852.2 -0.6 21
2019-08-13 15:00:00 22.6 4 Sur 23 Oeste 0 852.4 -0.1 22
2019-08-13 14:00:00 22.8 4 Oeste 19 Norte 0 852.5 0.3 25
2019-08-13 13:00:00 20.1 5 Este 16 Nordeste 0 852.8 0.7 31
2019-08-13 12:00:00 19.7 3 Oeste 12 Sudoeste 0 852.5 0.6 33
2019-08-13 11:00:00 17.3 5 Este 14 Sudeste 0 852.2 0.5 39
2019-08-13 10:00:00 13.9 4 Sudeste 8 Sudeste 0 852.1 0.6 53
2019-08-13 09:00:00 8.8 0 Calma 5 Este 0 851.9 0.2 68
2019-08-13 08:00:00 5.6 0 Calma 6 Nordeste 0 851.7 0.1 72
2019-08-13 07:00:00 5.6 3 Este 6 Nordeste 0 851.5 -0.3 70
2019-08-13 06:00:00 6.2 0 Calma 5 Nordeste 0 851.7 -0.6 67
2019-08-13 05:00:00 6.4 2 Nordeste 9 Este 0 851.6 -1.1 65
2019-08-13 04:00:00 8.5 5 Nordeste 12 Nordeste 0 851.8 -1 59
2019-08-13 03:00:00 7.7 4 Nordeste 8 Norte 0 852.3 -0.3 52
2019-08-13 02:00:00 9.2 4 Este 8 Sudeste 0 852.7 0.5 47
2019-08-13 01:00:00 9.5 3 Este 6 Oeste 0 852.8 1.2 44
2019-08-13 00:00:00 10.3 4 Oeste 9 Sudeste 0 852.6 1.3 40
2019-08-12 23:00:00 11.8 3 Este 14 Nordeste 0 852.2 1.1 36
2019-08-12 22:00:00 13 5 Nordeste 15 Nordeste 0 851.6 0.6 32
2019-08-12 21:00:00 14.5 5 Nordeste 20 Nordeste 0 851.3 0.3 29
2019-08-12 20:00:00 17.2 6 Norte 18 Nordeste 0 851.1 -0.2 27
2019-08-12 19:00:00 18.5 6 Nordeste 18 Norte 0 851 -0.4 27
2019-08-12 18:00:00 19.4 9 Nordeste 23 Nordeste 0 851 -0.7 25
2019-08-12 17:00:00 19.8 5 Nordeste 22 Este 0 851.3 -0.5 25
2019-08-12 16:00:00 19.9 8 Norte 24 Nordeste 0 851.4 -0.5 25
2019-08-12 15:00:00 19.1 6 Norte 19 Nordeste 0 851.7 -0.1 28
2019-08-12 14:00:00 17.2 8 Este 22 Este 0 851.8 0.1 33
2019-08-12 13:00:00 16.3 7 Nordeste 21 Nordeste 0 851.9 0.6 39
2019-08-12 12:00:00 14.8 6 Nordeste 18 Este 0 851.8 0.6 47
2019-08-12 11:00:00 12.7 2 Nordeste 12 Este 0 851.7 0.8 57
2019-08-12 10:00:00 10.2 4 Sudeste 8 Este 0 851.3 1 72
2019-08-12 09:00:00 6.2 0 Calma 5 Noroeste 0 851.2 0.7 88
2019-08-12 08:00:00 3.8 4 Oeste 9 Sudoeste 0 850.9 0.3 91
2019-08-12 07:00:00 3.4 4 Noroeste 6 Noroeste 0 850.3 -0.5 92
2019-08-12 06:00:00 4.2 3 Oeste 9 Sudoeste 0 850.5 -0.8 89
2019-08-12 05:00:00 5.1 3 Sudoeste 9 Sudoeste 0 850.6 -1 84
2019-08-12 04:00:00 6.5 4 Oeste 13 Oeste 0 850.8 -0.8 79
2019-08-12 03:00:00 7.4 3 Sudoeste 14 Oeste 0 851.3 -0.3 74
2019-08-12 02:00:00 8.2 3 Oeste 15 Sur 0 851.6 0.3 68
2019-08-12 01:00:00 8.8 5 Sudoeste 14 Sur 0 851.6 0.9 57
2019-08-12 00:00:00 9.5 4 Oeste 12 Sudoeste 0 851.6 1.4 52
2019-08-11 23:00:00 9.9 4 Oeste 14 Noroeste 0 851.3 1.6 46
2019-08-11 22:00:00 11.8 0 Calma 18 Noroeste 0 850.7 0.9 41
2019-08-11 21:00:00 14.5 0 Calma 16 Norte 0 850.2 0.3 37
2019-08-11 20:00:00 15.8 4 Oeste 19 Oeste 0 849.7 -0.1 36
2019-08-11 19:00:00 19 4 Oeste 22 Noroeste 0 849.8 -0.3 33
2019-08-11 18:00:00 19 4 Oeste 22 Oeste 0 849.9 -0.1 36
2019-08-11 17:00:00 22.1 5 Oeste 23 Oeste 0 849.8 -0.2 35
2019-08-11 16:00:00 21.8 8 Oeste 21 Noroeste 0 850.1 0.1 35
2019-08-11 15:00:00 22 6 Oeste 22 Sudoeste 0 850 0.5 35
2019-08-11 14:00:00 22 5 Oeste 22 Noroeste 0 850 0.4 32
2019-08-11 13:00:00 20.1 6 Oeste 20 Oeste 0 850 1 33
2019-08-11 12:00:00 20.2 4 Oeste 18 Oeste 0 849.5 0.7 36
2019-08-11 11:00:00 18.8 5 Oeste 18 Oeste 0 849.6 0.9 44
2019-08-11 10:00:00 17.2 4 Oeste 12 Oeste 0 849 0.8 45
2019-08-11 09:00:00 12.1 3 Oeste 9 Sudoeste 0 848.8 0.2 63
2019-08-11 08:00:00 8.2 5 Norte 8 Norte 0 848.7 -0.9 82
2019-08-11 07:00:00 9.1 5 Nordeste 11 Nordeste 0 848.2 -2 84
2019-08-11 06:00:00 10.3 0 Calma 12 Oeste 0 848.6 -1.7 79
2019-08-11 05:00:00 12 2 Oeste 18 Sudoeste 0 849.6 -0.8 70
2019-08-11 04:00:00 12.7 4 Oeste 17 Oeste 0 850.2 0 64
2019-08-11 03:00:00 13.7 4 Sudoeste 16 Sudoeste 0 850.3 -0.4 62
2019-08-11 02:00:00 14.3 2 Oeste 8 Oeste 0 850.4 -0.8 58
2019-08-11 01:00:00 14.8 0 Calma 6 Oeste 0 850.2 -0.7 52
2019-08-11 00:00:00 15.3 0 Calma 8 Norte 0 850.7 -0.2 50
2019-08-10 23:00:00 16.2 0 Calma 7 Noroeste 0 851.2 0.5 50
2019-08-10 22:00:00 16.7 3 Sudoeste 11 Norte 0 850.9 -0.1 48
2019-08-10 21:00:00 18.8 3 Noroeste 8 Noroeste 0.1 850.9 0 51
2019-08-10 20:00:00 18.8 0 Calma 9 Noroeste 0 850.7 -0.6 54
2019-08-10 19:00:00 18.9 3 Este 15 Este 0 851 -0.6 46
2019-08-10 18:00:00 21.8 6 Sur 22 Sudeste 0 850.9 -1 31
2019-08-10 17:00:00 24 0 Calma 34 Este 0 851.3 -0.8 30
2019-08-10 16:00:00 21.9 10 Sudeste 24 Este 0.1 851.6 -0.4 33
2019-08-10 15:00:00 22.6 11 Sudeste 26 Sudeste 0 851.9 -0.2 31
2019-08-10 14:00:00 23 4 Sudoeste 14 Sudoeste 0 852.1 0.1 21
2019-08-10 13:00:00 21.4 3 Oeste 12 Oeste 0.1 852 0 23
2019-08-10 12:00:00 20.1 0 Calma 10 Sudoeste 0 852.1 0.5 25
2019-08-10 11:00:00 16.8 3 Sur 7 Sur 0 852 0.4 51
2019-08-10 10:00:00 12.9 0 Calma 4 Sudeste 0.1 852 0.8 89
2019-08-10 09:00:00 9.2 0 Calma 7 Noroeste 0 851.6 0.3 99
2019-08-10 08:00:00 7.9 0 Calma 5 Norte 0 851.6 0.4 99
2019-08-10 07:00:00 8.4 0 Calma 5 Norte 0 851.2 0.2 99
2019-08-10 06:00:00 7.6 0 Calma 6 Oeste 0.1 851.3 0.1 99
2019-08-10 05:00:00 7.5 0 Calma 6 Nordeste 0 851.2 -0.3 99
2019-08-10 04:00:00 7.3 4 Norte 7 Nordeste 0 851 -0.6 99
2019-08-10 03:00:00 7.8 5 Nordeste 8 Norte 0.1 851.2 -0.6 99
2019-08-10 02:00:00 7.9 4 Norte 6 Nordeste 0 851.5 -0.1 98
2019-08-10 01:00:00 9.3 0 Calma 6 Oeste 0 851.6 0.7 95
2019-08-10 00:00:00 11.8 0 Calma 6 Sur 0.1 851.8 1.4 94
2019-08-09 23:00:00 14.2 0 Calma 10 Oeste 0 851.6 1.1 97
2019-08-09 22:00:00 14.5 0 Calma 5 Sudeste 0.1 850.9 0.4 95
2019-08-09 21:00:00 16.2 0 Calma 6 Oeste 0 850.4 0.1 94
2019-08-09 20:00:00 16.4 2 Sudoeste 18 Oeste 0.1 850.5 0.1 94
2019-08-09 19:00:00 17.2 5 Oeste 28 Sudoeste 0.1 850.5 -0.1 92
2019-08-09 18:00:00 18.7 12 Sur 37 Sur 0 850.3 -0.2 83
2019-08-09 17:00:00 20.8 9 Sur 32 Sur 0 850.4 0.2 68
2019-08-09 16:00:00 22.5 8 Sudoeste 36 Sur 0 850.6 0.4 59
2019-08-09 15:00:00 25.5 13 Sur 36 Sudoeste 0 850.5 0.6 51
2019-08-09 14:00:00 25.7 13 Sur 36 Sur 0 850.2 0.6 49
2019-08-09 13:00:00 25.6 15 Sur 33 Sur 0 850.2 1.2 48
2019-08-09 12:00:00 25.7 12 Sudoeste 34 Sur 0 849.9 1.1 49
2019-08-09 11:00:00 24.1 13 Sudoeste 36 Sudoeste 0 849.6 0.9 52
2019-08-09 10:00:00 22.3 11 Sudoeste 32 Sudoeste 0 849 0.9 59
2019-08-09 09:00:00 19 7 Sudoeste 25 Sudoeste 0 848.8 0.4 71
2019-08-09 08:00:00 16.8 8 Oeste 27 Oeste 0 848.7 0 70
2019-08-09 07:00:00 16.2 5 Oeste 21 Sudoeste 0 848.1 -0.6 66
2019-08-09 06:00:00 16.4 6 Oeste 19 Oeste 0 848.4 -0.3 66
2019-08-09 05:00:00 16 5 Oeste 18 Oeste 0 848.7 -0.4 63
2019-08-09 04:00:00 15.5 5 Noroeste 14 Noroeste 0 848.7 -0.7 63
2019-08-09 03:00:00 16.4 0 Calma 19 Sudoeste 0 848.7 -0.5 63
2019-08-09 02:00:00 16.4 0 Calma 14 Sudoeste 0 849.1 -0.3 66
2019-08-09 01:00:00 16.9 4 Sudoeste 13 Sudoeste 0 849.4 0.6 68
2019-08-09 00:00:00 17.3 3 Oeste 12 Sudoeste 0 849.2 0.2 70
2019-08-08 23:00:00 18.1 3 Sudeste 22 Sur 0 849.4 0.6 61
2019-08-08 22:00:00 19.3 6 Sur 26 Sudoeste 0 848.8 -0.1 56
2019-08-08 21:00:00 20.3 5 Sur 36 Sudoeste 0 849 -0.3 49
2019-08-08 20:00:00 21.6 10 Sur 37 Sur 0 848.8 -0.5 44
2019-08-08 19:00:00 23.8 11 Sur 31 Sur 0 848.9 -0.5 40
2019-08-08 18:00:00 24.4 11 Sur 28 Sudoeste 0 849.3 -0.2 40
2019-08-08 17:00:00 25.9 12 Sur 28 Sur 0 849.3 -0.4 37
2019-08-08 16:00:00 25.1 10 Sur 26 Sudoeste 0 849.4 0.2 38
2019-08-08 15:00:00 25.2 10 Sur 30 Sur 0.1 849.5 0.2 43
2019-08-08 14:00:00 25.7 10 Sur 24 Sudoeste 0 849.7 0.5 44
2019-08-08 13:00:00 25.1 10 Sur 28 Sur 0 849.2 0 46
2019-08-08 12:00:00 22.2 4 Sudeste 16 Este 0.1 849.3 0.2 56
2019-08-08 11:00:00 20.5 4 Sudeste 8 Oeste 0 849.2 0.3 61
2019-08-08 10:00:00 18.1 0 Calma 6 Sudeste 0 849.2 0.5 74
2019-08-08 09:00:00 13.7 0 Calma 5 Nordeste 0 849.1 0.6 91
2019-08-08 08:00:00 10.6 3 Nordeste 5 Nordeste 0.1 848.9 0 96
2019-08-08 07:00:00 10.1 0 Calma 7 Nordeste 0 848.7 -0.3 92
2019-08-08 06:00:00 10.3 3 Nordeste 7 Norte 0 848.5 -0.6 92
2019-08-08 05:00:00 10 2 Norte 5 Nordeste 0 848.9 0.3 90
2019-08-08 04:00:00 10.3 2 Nordeste 7 Nordeste 0.1 849 -0.1 88
2019-08-08 03:00:00 11 2 Norte 6 Norte 0 849.1 -0.4 84
2019-08-08 02:00:00 11.3 3 Nordeste 6 Este 0 848.6 -0.6 82
2019-08-08 01:00:00 12.1 3 Norte 7 Oeste 0 849.1 0.4 74
2019-08-08 00:00:00 13.1 4 Oeste 6 Oeste 0.1 849.5 1.1 74
2019-08-07 23:00:00 13.6 0 Calma 15 Oeste 0 849.2 0.6 74
2019-08-07 22:00:00 15.2 5 Oeste 17 Oeste 0.1 848.7 0.2 71
2019-08-07 21:00:00 16.7 4 Oeste 19 Oeste 0 848.4 -0.5 67
2019-08-07 20:00:00 17.6 4 Oeste 25 Oeste 0.1 848.6 -0.2 70
2019-08-07 19:00:00 18.1 4 Oeste 19 Oeste 0 848.5 -0.5 74
2019-08-07 18:00:00 17.4 6 Oeste 28 Sudoeste 0.1 848.9 -0.2 79
2019-08-07 17:00:00 17.3 3 Oeste 14 Oeste 0.1 848.8 -0.3 84
2019-08-07 16:00:00 16 3 Noroeste 10 Sur 0 849 -0.1 87
2019-08-07 15:00:00 15.1 2 Sur 8 Oeste 0.1 849.1 0.5 88
2019-08-07 14:00:00 15.9 3 Oeste 20 Oeste 0.1 849.1 1.1 86
2019-08-07 13:00:00 19 2 Oeste 13 Oeste 0 849.1 1.3 59
2019-08-07 12:00:00 19.3 3 Oeste 11 Oeste 0 848.6 1.6 59
2019-08-07 11:00:00 18 3 Oeste 8 Oeste 0 848 1.2 70
2019-08-07 10:00:00 16.5 2 Oeste 7 Sudoeste 0 847.8 1.3 78
2019-08-07 09:00:00 15.1 0 Calma 6 Noroeste 0 847 0.7 78
2019-08-07 08:00:00 13.5 4 Norte 6 Norte 0 846.8 0.5 80
2019-08-07 07:00:00 13.7 2 Sudeste 5 Oeste 0 846.5 -0.4 79
2019-08-07 06:00:00 14.3 0 Calma 6 Norte 0 846.3 -0.8 74
2019-08-07 05:00:00 14.3 2 Noroeste 10 Nordeste 0 846.3 -1.2 74
2019-08-07 04:00:00 15.1 0 Calma 4 Este 0 846.9 -0.9 70
2019-08-07 03:00:00 15.7 0 Calma 5 Nordeste 0 847.1 -1 65
2019-08-07 02:00:00 16 0 Calma 5 Noroeste 0 847.5 -0.9 59
2019-08-07 01:00:00 16.7 0 Calma 7 Norte 0 847.8 -0.1 56
2019-08-07 00:00:00 17.1 3 Norte 5 Norte 0 848.1 0.4 53
2019-08-06 23:00:00 17.9 0 Calma 6 Noroeste 0 848.4 1 45
2019-08-06 22:00:00 19.1 3 Noroeste 8 Sudoeste 0 847.9 0.1 36
2019-08-06 21:00:00 22.2 0 Calma 16 Sudoeste 0 847.7 -0.2 29
2019-08-06 20:00:00 24.4 6 Sudoeste 22 Sudoeste 0 847.4 -0.6 29
2019-08-06 19:00:00 26.5 7 Sudoeste 22 Sur 0 847.8 -0.2 28
2019-08-06 18:00:00 27.3 5 Sudoeste 23 Sudoeste 0 847.9 -0.5 26
2019-08-06 17:00:00 27.7 5 Sur 27 Sudoeste 0 848 -1 31
2019-08-06 16:00:00 28.9 5 Sudoeste 30 Sudeste 0 848 -1.2 28
2019-08-06 15:00:00 27.1 15 Sudeste 30 Sudeste 0 848.4 -0.8 31
2019-08-06 14:00:00 29.2 4 Oeste 19 Oeste 0 849 -0.1 24
2019-08-06 13:00:00 28 4 Oeste 18 Oeste 0 849.2 0.5 25
2019-08-06 12:00:00 26.3 2 Norte 13 Oeste 0 849.2 0.6 28
2019-08-06 11:00:00 24.6 3 Noroeste 8 Oeste 0 849.1 0.3 32
2019-08-06 10:00:00 21.5 3 Noroeste 7 Noroeste 0 848.7 -0.1 40
2019-08-06 09:00:00 14.7 2 Este 7 Nordeste 0 848.6 0 53
2019-08-06 08:00:00 11.4 5 Norte 9 Norte 0 848.8 -0.2 56
2019-08-06 07:00:00 10.8 3 Sudoeste 7 Norte 0 848.8 -0.5 56
2019-08-06 06:00:00 11.4 3 Nordeste 8 Norte 0 848.6 -1.2 51
2019-08-06 05:00:00 12.3 4 Norte 8 Nordeste 0 849 -0.8 48
2019-08-06 04:00:00 12.4 5 Nordeste 7 Norte 0 849.3 -0.8 45
2019-08-06 03:00:00 13 0 Calma 5 Noroeste 0 849.8 -0.1 39
2019-08-06 02:00:00 13.9 3 Nordeste 7 Norte 0 849.8 0 36
2019-08-06 01:00:00 14.8 3 Norte 7 Nordeste 0 850.1 0.5 36
2019-08-06 00:00:00 15.7 3 Norte 7 Norte 0 849.9 0.7 33
2019-08-05 23:00:00 17.5 5 Norte 7 Norte 0 849.8 0.9 30
2019-08-05 22:00:00 19.5 3 Oeste 10 Oeste 0 849.6 0.5 25
2019-08-05 21:00:00 22.5 3 Sudoeste 14 Oeste 0 849.2 -0.2 21
2019-08-05 20:00:00 25.1 4 Sudoeste 17 Oeste 0 848.9 -0.7 19
2019-08-05 19:00:00 27.3 5 Sur 19 Sur 0 849.1 -0.7 18
2019-08-05 18:00:00 28.2 5 Sur 22 Sudoeste 0 849.4 -0.7 18
2019-08-05 17:00:00 27.6 6 Sur 23 Sur 0 849.6 -0.6 18
2019-08-05 16:00:00 28.8 8 Sudoeste 27 Sudoeste 0 849.8 -0.6 17
2019-08-05 15:00:00 28.1 12 Sur 29 Sudoeste 0 850.1 -0.3 18
2019-08-05 14:00:00 28.6 10 Sur 25 Sur 0 850.2 -0.1 21
2019-08-05 13:00:00 28 8 Sur 28 Sur 0 850.4 0.3 22
2019-08-05 12:00:00 26 9 Sur 24 Sudoeste 0 850.4 0.3 25
2019-08-05 11:00:00 25.1 5 Sur 18 Sur 0 850.3 0.4 30
2019-08-05 10:00:00 22.6 5 Sudoeste 12 Sur 0 850.1 0.2 40
2019-08-05 09:00:00 17.1 2 Sur 8 Nordeste 0 850.1 0.2 56
2019-08-05 08:00:00 12.9 3 Norte 8 Norte 0 849.9 -0.3 63
2019-08-05 07:00:00 11.5 2 Nordeste 6 Norte 0 849.9 -0.5 70
2019-08-05 06:00:00 11.6 2 Norte 9 Nordeste 0 849.9 -0.6 71
2019-08-05 05:00:00 12.3 4 Norte 8 Norte 0 850.2 -0.7 70
2019-08-05 04:00:00 12.7 3 Nordeste 9 Nordeste 0 850.4 -0.5 67
2019-08-05 03:00:00 13.4 3 Nordeste 7 Norte 0 850.5 -0.5 60
2019-08-05 02:00:00 14.2 3 Este 8 Norte 0 850.9 0 54
2019-08-05 01:00:00 14.9 4 Norte 8 Norte 0 850.9 0.4 50
2019-08-05 00:00:00 16.7 2 Noroeste 9 Norte 0 851 1 47
2019-08-04 23:00:00 18.3 0 Calma 10 Sudoeste 0 850.9 1.2 43
2019-08-04 22:00:00 20.6 3 Sudoeste 13 Noroeste 0 850.5 0.9 37
2019-08-04 21:00:00 23.3 3 Oeste 19 Sudoeste 0 850 0.3 36
2019-08-04 20:00:00 25.5 6 Sudoeste 21 Sudoeste 0 849.7 0.5 31
2019-08-04 19:00:00 28.1 3 Oeste 21 Oeste 0 849.6 -0.4 29
2019-08-04 18:00:00 28.9 6 Sudoeste 23 Sur 0 849.7 -0.1 31
2019-08-04 17:00:00 26.6 7 Sur 34 Sudeste 0 849.2 -0.7 32
2019-08-04 16:00:00 26.2 15 Sudeste 31 Sudeste 0 850 -0.3 33
2019-08-04 15:00:00 26.4 14 Sudeste 31 Sudeste 0 849.8 -0.4 35
2019-08-04 14:00:00 26 14 Este 33 Sudeste 0 849.9 -0.2 35
2019-08-04 13:00:00 25.6 11 Sudeste 34 Nordeste 0 850.3 0.3 33
2019-08-04 12:00:00 25.7 4 Noroeste 13 Sudoeste 0 850.2 0.4 27
2019-08-04 11:00:00 24.1 3 Oeste 13 Sudoeste 0 850.1 0.7 33
2019-08-04 10:00:00 20.4 2 Sur 5 Sur 0 850 0.4 52
2019-08-04 09:00:00 14.3 0 Calma 7 Nordeste 0 849.8 0.2 68
2019-08-04 08:00:00 11.3 4 Nordeste 8 Nordeste 0 849.4 -0.2 78
2019-08-04 07:00:00 11 3 Nordeste 8 Norte 0 849.6 -0.2 78
2019-08-04 06:00:00 11.7 4 Norte 7 Nordeste 0 849.6 -0.5 74
2019-08-04 05:00:00 12 3 Nordeste 7 Norte 0 849.6 -0.5 71
2019-08-04 04:00:00 13 2 Nordeste 6 Nordeste 0 849.8 -0.3 66
2019-08-04 03:00:00 13.5 0 Calma 5 Noroeste 0 850.1 0.1 60
2019-08-04 02:00:00 14.6 3 Noroeste 8 Oeste 0 850.1 0.3 49
2019-08-04 01:00:00 15.7 3 Noroeste 9 Norte 0 850.1 0.7 44
2019-08-04 00:00:00 16.5 4 Norte 7 Norte 0 850 0.9 41
2019-08-03 23:00:00 18.5 4 Noroeste 6 Noroeste 0 849.8 0.8 35
2019-08-03 22:00:00 20 3 Oeste 8 Noroeste 0 849.4 0.3 29
2019-08-03 21:00:00 23.2 2 Oeste 14 Noroeste 0 849.1 -0.3 25
2019-08-03 20:00:00 25.2 5 Sudoeste 19 Sur 0 849 -0.6 23
2019-08-03 19:00:00 27.6 4 Sudoeste 19 Sur 0 849.1 -0.7 21
2019-08-03 18:00:00 28.1 6 Sudoeste 20 Sudoeste 0 849.4 -0.5 21
2019-08-03 17:00:00 28.6 7 Sudoeste 34 Sudeste 0 849.6 -0.5 22
2019-08-03 16:00:00 28 8 Sur 30 Sur 0 849.8 -0.6 24
2019-08-03 15:00:00 26.4 10 Sudeste 30 Sudeste 0 849.9 -0.4 24
2019-08-03 14:00:00 27 11 Sur 30 Sur 0 850.1 0 25
2019-08-03 13:00:00 26.5 5 Sur 18 Sur 0 850.4 0.7 25
2019-08-03 12:00:00 26.3 8 Sudoeste 22 Sur 0 850.3 0.7 27
2019-08-03 11:00:00 25.1 8 Sudoeste 22 Sudoeste 0 850.1 0.7 28
2019-08-03 10:00:00 22.3 5 Sur 13 Sur 0 849.7 0.4 35
2019-08-03 09:00:00 17.2 3 Este 8 Nordeste 0 849.6 0.4 44
2019-08-03 08:00:00 13.1 3 Este 10 Norte 0 849.4 0.1 48
2019-08-03 07:00:00 12.1 4 Norte 10 Nordeste 0 849.3 -0.2 52
2019-08-03 06:00:00 12.8 6 Nordeste 9 Norte 0 849.2 -0.6 51
2019-08-03 05:00:00 13.1 5 Nordeste 8 Nordeste 0 849.3 -0.7 49
2019-08-03 04:00:00 13.7 5 Nordeste 8 Nordeste 0 849.5 -0.8 48
2019-08-03 03:00:00 14.7 5 Norte 9 Nordeste 0 849.8 -0.8 48
2019-08-03 02:00:00 14.3 3 Nordeste 6 Norte 0 850 -0.5 47
2019-08-03 01:00:00 15.3 3 Norte 7 Norte 0 850.3 0.2 44
2019-08-03 00:00:00 16.7 4 Nordeste 6 Nordeste 0 850.6 0.9 41
2019-08-02 23:00:00 18.2 3 Nordeste 7 Sudoeste 0 850.5 1 37
2019-08-02 22:00:00 20.3 0 Calma 6 Noroeste 0 850.1 0.5 32
2019-08-02 21:00:00 23.4 3 Noroeste 16 Noroeste 0 849.7 -0.1 28
2019-08-02 20:00:00 25.5 4 Norte 18 Sudeste 0 849.5 -0.6 27
2019-08-02 19:00:00 26 9 Sudeste 21 Este 0 849.6 -0.7 27
2019-08-02 18:00:00 26.4 11 Sudeste 25 Este 0 849.8 -0.9 27
2019-08-02 17:00:00 26.6 11 Sudeste 30 Sudeste 0 850.1 -0.7 28
2019-08-02 16:00:00 27.1 9 Sudeste 24 Sur 0 850.3 -0.6 28
2019-08-02 15:00:00 25.9 7 Sur 25 Este 0 850.7 0.1 30
2019-08-02 14:00:00 24.9 12 Este 27 Este 0 850.8 0.4 32
2019-08-02 13:00:00 24.6 12 Sudeste 27 Nordeste 0 850.9 0.8 33
2019-08-02 12:00:00 23.8 6 Sudeste 19 Sudeste 0 850.6 0.8 34
2019-08-02 11:00:00 21.8 10 Este 21 Sudeste 0 850.4 1 37
2019-08-02 10:00:00 20.4 7 Sudeste 19 Sudeste 0 850.1 0.6 43
2019-08-02 09:00:00 14.1 0 Calma 6 Norte 0 849.8 0.4 60
2019-08-02 08:00:00 10.5 3 Nordeste 7 Norte 0 849.4 -0.2 66
2019-08-02 07:00:00 9.8 3 Nordeste 7 Nordeste 0 849.5 -0.3 66
2019-08-02 06:00:00 10.4 4 Nordeste 7 Nordeste 0 849.4 -0.5 63
2019-08-02 05:00:00 10.6 4 Nordeste 6 Nordeste 0 849.6 -0.6 61
2019-08-02 04:00:00 11.5 4 Norte 6 Norte 0 849.8 -0.3 55
2019-08-02 03:00:00 11.6 0 Calma 6 Nordeste 0 849.9 -0.2 52
2019-08-02 02:00:00 13 2 Sudoeste 6 Oeste 0 850.2 0.4 47
2019-08-02 01:00:00 13.7 0 Calma 7 Norte 0 850.1 1.1 45
2019-08-02 00:00:00 15 4 Nordeste 9 Nordeste 0 850.1 1.4 40
2019-08-01 23:00:00 16.4 5 Nordeste 10 Nordeste 0 849.8 1.7 32
2019-08-01 22:00:00 18.8 0 Calma 8 Oeste 0 849 0.9 27
2019-08-01 21:00:00 21.8 2 Oeste 16 Oeste 0 848.7 0.5 25
2019-08-01 20:00:00 24.1 0 Calma 21 Oeste 0 848.1 0 24
2019-08-01 19:00:00 26.2 4 Noroeste 21 Oeste 0 848.1 -0.2 23
2019-08-01 18:00:00 27.2 5 Oeste 24 Noroeste 0 848.2 -0.1 22
2019-08-01 17:00:00 27.6 4 Oeste 19 Oeste 0 848.1 -0.2 24
2019-08-01 16:00:00 27.1 4 Sudoeste 22 Sur 0 848.3 0.1 22
2019-08-01 15:00:00 26.9 3 Sudoeste 20 Sudoeste 0 848.3 0.3 24
2019-08-01 14:00:00 26.5 4 Sur 17 Sudoeste 0 848.3 0.7 23
2019-08-01 13:00:00 26.3 5 Oeste 23 Oeste 0 848.2 0.9 21
2019-08-01 12:00:00 25.4 5 Oeste 18 Noroeste 0 848 0.9 20
2019-08-01 11:00:00 23.5 4 Oeste 14 Noroeste 0 847.6 0.5 26
2019-08-01 10:00:00 20.5 3 Sur 12 Sur 0 847.3 0.3 35
2019-08-01 09:00:00 15.6 4 Nordeste 11 Nordeste 0 847.1 0.2 84
2019-08-01 08:00:00 11.9 5 Este 10 Nordeste 0 847.1 0.2 91
2019-08-01 07:00:00 12.5 2 Nordeste 9 Nordeste 0 847 -0.1 92
2019-08-01 06:00:00 13.3 4 Nordeste 7 Nordeste 0 846.9 -0.5 90
2019-08-01 05:00:00 13.6 0 Calma 10 Este 0 846.9 -0.7 69
2019-08-01 04:00:00 14.2 4 Nordeste 7 Nordeste 0 847.1 -0.9 58
2019-08-01 03:00:00 14.6 4 Este 9 Nordeste 0 847.4 -0.5 52
2019-08-01 02:00:00 16.2 0 Calma 11 Sudeste 0 847.6 -0.4 43
2019-08-01 01:00:00 16.7 5 Nordeste 11 Este 0 848 0.3 41
2019-08-01 00:00:00 16.5 0 Calma 6 Norte 0 847.9 0.1 41
2019-07-31 23:00:00 17.5 3 Nordeste 8 Nordeste 0 848 0.2 39
2019-07-31 22:00:00 19.1 3 Nordeste 5 Sudoeste 0 847.7 -0.4 35
2019-07-31 21:00:00 21.5 2 Sudoeste 14 Sur 0 847.8 -0.5 32
2019-07-31 20:00:00 23.8 5 Sudoeste 19 Sudoeste 0 847.8 -0.8 31
2019-07-31 19:00:00 25.5 5 Sudoeste 24 Sudoeste 0 848.1 -1 29
2019-07-31 18:00:00 26.4 8 Sudoeste 27 Sur 0 848.3 -0.9 28
2019-07-31 17:00:00 26 4 Sudoeste 23 Sudoeste 0 848.6 -0.6 25
2019-07-31 16:00:00 24.6 8 Sudeste 31 Sudeste 0 849.1 0 32
2019-07-31 15:00:00 24.3 12 Sur 28 Sudeste 0 849.2 0.1 33
2019-07-31 14:00:00 24.7 9 Sur 27 Sur 0 849.2 0.2 35
2019-07-31 13:00:00 23.4 8 Sudeste 22 Este 0 849.1 0.3 40
2019-07-31 12:00:00 21.3 8 Este 22 Este 0 849.1 0.4 48
2019-07-31 11:00:00 19 9 Este 26 Este 0 849 0.2 54
2019-07-31 10:00:00 16.5 11 Este 24 Este 0 848.8 0 58
2019-07-31 09:00:00 13.7 4 Este 12 Nordeste 0 848.7 -0.3 55
2019-07-31 08:00:00 10.1 2 Norte 10 Nordeste 0 848.8 -0.3 56
2019-07-31 07:00:00 9.2 6 Norte 11 Norte 0 848.8 -0.2 56
2019-07-31 06:00:00 9.9 6 Nordeste 9 Nordeste 0 849 -0.3 55
2019-07-31 05:00:00 9.4 5 Nordeste 9 Nordeste 0 849.1 -0.7 55
2019-07-31 04:00:00 9.6 0 Calma 10 Nordeste 0 849 -1 53
2019-07-31 03:00:00 9.7 5 Este 9 Nordeste 0 849.3 -0.7 53
2019-07-31 02:00:00 10.5 3 Nordeste 9 Este 0 849.8 -0.3 51
2019-07-31 01:00:00 11.1 4 Sudeste 8 Sudeste 0 850 0.5 44
2019-07-31 00:00:00 11.6 3 Este 8 Sudeste 0 850 0.9 39
2019-07-30 23:00:00 13.4 3 Este 9 Sudeste 0 850.1 1.3 35
2019-07-30 22:00:00 15.3 0 Calma 20 Nordeste 0 849.5 0.8 31
2019-07-30 21:00:00 18.3 8 Norte 22 Nordeste 0 849.1 0.1 27
2019-07-30 20:00:00 20.6 8 Norte 19 Nordeste 0 848.8 -0.6 24
2019-07-30 19:00:00 23.9 6 Norte 23 Norte 0 848.7 -1 23
2019-07-30 18:00:00 24.1 5 Nordeste 23 Sudeste 0 849 -0.8 24
2019-07-30 17:00:00 23 8 Este 26 Este 0 849.4 -0.7 25
2019-07-30 16:00:00 22.7 6 Sudeste 21 Sudeste 0 849.7 -0.3 27
2019-07-30 15:00:00 22.2 5 Nordeste 19 Sudeste 0 849.8 -0.2 27
2019-07-30 14:00:00 20 0 Calma 19 Sudeste 0 850.1 0.1 28
2019-07-30 13:00:00 19.7 6 Sudeste 17 Este 0 850 0.2 32
2019-07-30 12:00:00 17.4 4 Nordeste 14 Este 0 850 0.3 40
2019-07-30 11:00:00 14.6 4 Sudeste 12 Sudeste 0 850 0.6 54
2019-07-30 10:00:00 11.1 4 Sudeste 9 Este 0 849.8 0.6 68
2019-07-30 09:00:00 7.9 0 Calma 4 Este 0 849.7 0.4 87
2019-07-30 08:00:00 4.4 0 Calma 9 Nordeste 0 849.4 0 94
2019-07-30 07:00:00 4 4 Norte 6 Oeste 0 849.2 -0.2 94
2019-07-30 06:00:00 4.7 3 Noroeste 5 Oeste 0 849.3 -0.2 91
2019-07-30 05:00:00 5.8 3 Sudoeste 10 Sudoeste 0 849.4 -0.1 87
2019-07-30 04:00:00 6.5 4 Sudoeste 8 Sudoeste 0 849.4 0.2 83
2019-07-30 03:00:00 7.6 4 Sudoeste 10 Sudoeste 0 849.5 0.5 74
2019-07-30 02:00:00 8.7 3 Oeste 9 Sudoeste 0 849.5 0.4 65
2019-07-30 01:00:00 9.7 0 Calma 10 Sudoeste 0 849.2 0.8 57
2019-07-30 00:00:00 11.1 3 Oeste 14 Sudoeste 0 849 1.5 50
2019-07-29 23:00:00 12.5 4 Sudoeste 14 Sudoeste 0 849.1 1.8 40
2019-07-29 22:00:00 14.4 2 Sudoeste 18 Noroeste 0 848.4 1.2 36
2019-07-29 21:00:00 17.7 5 Noroeste 26 Noroeste 0 847.5 0.2 33
2019-07-29 20:00:00 20 6 Noroeste 25 Noroeste 0 847.3 0 33
2019-07-29 19:00:00 22.5 3 Oeste 23 Noroeste 0 847.2 0.1 32
2019-07-29 18:00:00 23.1 5 Noroeste 20 Sudoeste 0 847.3 0.3 32
2019-07-29 17:00:00 24.8 5 Oeste 24 Sudoeste 0 847.3 0.4 31
2019-07-29 16:00:00 26.4 6 Oeste 24 Oeste 0 847.1 0.2 28
2019-07-29 15:00:00 25.5 5 Oeste 20 Oeste 0 847 0.1 28
2019-07-29 14:00:00 24.9 4 Oeste 19 Oeste 0 846.9 0.5 26
2019-07-29 13:00:00 25.1 4 Oeste 19 Oeste 0 846.9 0.9 28
2019-07-29 12:00:00 23.5 4 Oeste 17 Oeste 0 846.9 0.9 33
2019-07-29 11:00:00 21.7 3 Noroeste 10 Oeste 0 846.4 0.4 35
2019-07-29 10:00:00 18.4 0 Calma 4 Noroeste 0 846 0.4 54
2019-07-29 09:00:00 12.6 0 Calma 5 Noroeste 0 846 0.4 74
2019-07-29 08:00:00 9.3 3 Norte 5 Norte 0 846 0 83
2019-07-29 07:00:00 9.3 3 Nordeste 5 Nordeste 0 845.6 -0.3 83
2019-07-29 06:00:00 9.5 3 Norte 5 Norte 0 845.6 -0.7 79
2019-07-29 05:00:00 10 4 Norte 6 Nordeste 0 846 -0.2 74
2019-07-29 04:00:00 11.1 0 Calma 3 Oeste 0 845.9 0.5 71
2019-07-29 03:00:00 11.5 0 Calma 6 Noroeste 0 846.3 -0.1 67
2019-07-29 02:00:00 12.1 0 Calma 7 Norte 0 846.2 -0.3 64
2019-07-29 01:00:00 13.1 5 Norte 7 Norte 0 845.4 -0.4 60
2019-07-29 00:00:00 13.8 4 Norte 6 Norte 0 846.4 0.7 56
2019-07-28 23:00:00 15.4 3 Oeste 7 Oeste 0 846.5 1.2 47
2019-07-28 22:00:00 17.6 0 Calma 13 Oeste 0 845.8 0.6 39
2019-07-28 21:00:00 19.7 0 Calma 14 Noroeste 0 845.7 0.2 35
2019-07-28 20:00:00 21.5 3 Noroeste 18 Noroeste 0 845.3 -0.5 31
2019-07-28 19:00:00 23.5 4 Norte 20 Norte 0 845.2 -1 28
2019-07-28 18:00:00 24.1 5 Noroeste 24 Oeste 0 845.5 -0.6 26
2019-07-28 17:00:00 24.5 5 Noroeste 20 Oeste 0 845.8 -0.1 26
2019-07-28 16:00:00 24.5 4 Noroeste 22 Noroeste 0 846.2 -0.1 29
2019-07-28 15:00:00 23.3 4 Noroeste 19 Sudoeste 0 846.1 -0.1 31
2019-07-28 14:00:00 23 3 Noroeste 20 Oeste 0 845.9 -0.1 31
2019-07-28 13:00:00 22 4 Sudoeste 23 Sudoeste 0 846.3 0.3 37
2019-07-28 12:00:00 20.4 3 Sudoeste 14 Oeste 0 846.2 0.6 41
2019-07-28 11:00:00 18.2 4 Oeste 12 Oeste 0 846 0.2 51
2019-07-28 10:00:00 14.8 3 Sudeste 6 Sudeste 0 846 0.4 71
2019-07-28 09:00:00 10.7 0 Calma 6 Norte 0 845.6 0.3 95
2019-07-28 08:00:00 7.3 2 Nordeste 7 Nordeste 0 845.8 0.3 98
2019-07-28 07:00:00 7.2 4 Nordeste 7 Nordeste 0 845.6 -0.2 97
2019-07-28 06:00:00 7.6 4 Nordeste 6 Norte 0 845.3 -0.4 97
2019-07-28 05:00:00 8 3 Este 8 Nordeste 0 845.5 -0.1 97
2019-07-28 04:00:00 9 3 Este 7 Sudeste 0 845.8 0.1 95
2019-07-28 03:00:00 9.4 5 Nordeste 9 Nordeste 0 845.7 0.2 91
2019-07-28 02:00:00 9.8 0 Calma 7 Este 0 845.6 0.4 86
2019-07-28 01:00:00 11.2 0 Calma 11 Oeste 0 845.7 0.9 79
2019-07-28 00:00:00 11.9 0 Calma 18 Noroeste 0 845.5 1.1 71
2019-07-27 23:00:00 13.7 5 Noroeste 15 Norte 0 845.2 1.3 64
2019-07-26 12:00:00 21.6 4 Oeste 16 Oeste 0 846.9 0 38
2019-07-26 11:00:00 18.7 2 Sudoeste 13 Sudoeste 0 846.7 -0.1 57
2019-07-26 10:00:00 15.5 3 Oeste 10 Sudoeste 0 846.8 -0.1 79
2019-07-26 09:00:00 13.8 3 Oeste 7 Oeste 0 846.9 -0.1 94
2019-07-26 08:00:00 12.2 0 Calma 6 Noroeste 0 846.8 -0.4 95
2019-07-26 07:00:00 12.3 0 Calma 5 Sudoeste 0 846.9 -0.5 94
2019-07-26 06:00:00 14 2 Sudoeste 14 Oeste 0 847 -0.9 89
2019-07-26 05:00:00 14.3 2 Oeste 8 Oeste 0 847.2 -1.2 84
2019-07-26 04:00:00 15.2 2 Noroeste 19 Sudeste 0 847.4 -0.8 78
2019-07-26 03:00:00 16 4 Sudeste 16 Sudoeste 0 847.9 -0.7 74
2019-07-26 02:00:00 16.4 3 Sudoeste 13 Sudoeste 0 848.4 -0.3 55
2019-07-26 01:00:00 17.2 4 Norte 7 Nordeste 0 848.2 -0.6 51
2019-07-26 00:00:00 17.6 0 Calma 9 Oeste 0 848.6 -0.3 50
2019-07-25 23:00:00 18 2 Nordeste 7 Norte 0 848.7 -0.1 47
2019-07-25 22:00:00 19.4 3 Oeste 13 Sur 0 848.8 0.3 40
2019-07-25 21:00:00 22 5 Sudoeste 23 Sudoeste 0 848.9 -0.4 35
2019-07-25 20:00:00 23.2 5 Sur 30 Sur 0 848.8 -0.6 32
2019-07-25 19:00:00 25 8 Sudoeste 33 Sur 0 848.5 -1.2 31
2019-07-25 18:00:00 26 13 Sudoeste 31 Sudoeste 0 849.3 -0.5 31
2019-07-25 17:00:00 26 11 Sur 29 Sur 0 849.4 -0.7 35
2019-07-25 16:00:00 26.1 10 Sur 36 Oeste 0 849.7 -0.4 35
2019-07-25 15:00:00 25 13 Sur 33 Sur 0 849.8 -0.1 35
2019-07-25 14:00:00 26.5 10 Sur 31 Este 0 850.1 0.3 35
2019-07-25 13:00:00 24.5 3 Sudeste 24 Sur 0 850.1 0.8 37
2019-07-25 12:00:00 23.8 8 Sudeste 26 Oeste 0 849.9 0.4 37
2019-07-25 11:00:00 24.6 6 Sudoeste 24 Sur 0 849.8 0.9 40
2019-07-25 10:00:00 23.4 10 Sur 23 Sudoeste 0 849.3 0.3 45
2019-07-25 09:00:00 19.6 6 Sur 15 Sur 0 849.5 0.5 57
2019-07-25 08:00:00 14.7 0 Calma 7 Norte 0 848.9 -0.3 62
2019-07-25 07:00:00 15 5 Norte 10 Nordeste 0 849 -0.5 59
2019-07-25 06:00:00 14.6 3 Noroeste 6 Oeste 0 849 -0.6 60
2019-07-25 05:00:00 15 0 Calma 5 Nordeste 0 849.2 -0.5 59
2019-07-25 04:00:00 15.6 0 Calma 4 Nordeste 0 849.5 -0.2 58
2019-07-25 03:00:00 16.6 2 Noroeste 5 Norte 0 849.6 -0.2 53
2019-07-25 02:00:00 16.9 4 Nordeste 6 Norte 0 849.7 -0.2 52
2019-07-25 01:00:00 18.3 4 Norte 7 Nordeste 0 849.7 0 47
2019-07-25 00:00:00 18.6 5 Nordeste 8 Nordeste 0 849.8 -0.1 46
2019-07-24 23:00:00 19.6 5 Nordeste 7 Nordeste 0 849.9 0.1 43
2019-07-24 22:00:00 21.5 2 Sur 13 Sudoeste 0 849.7 -0.3 37
2019-07-24 21:00:00 24 5 Sudoeste 20 Sudoeste 0 849.9 -0.6 33
2019-07-24 20:00:00 25.8 6 Sudoeste 20 Sudoeste 0 849.8 -0.9 32
2019-07-24 19:00:00 28.3 8 Sudoeste 27 Sudoeste 0 850 -1 31
2019-07-24 18:00:00 27.9 10 Sur 29 Sur 0 850.5 -0.9 31
2019-07-24 17:00:00 26.2 10 Sur 36 Sudoeste 0 850.7 -0.8 32
2019-07-24 16:00:00 26.5 10 Sudeste 30 Sur 0 851 -0.5 32
2019-07-24 15:00:00 26.6 11 Sur 34 Sur 0 851.4 -0.2 33
2019-07-24 14:00:00 26.3 13 Sur 32 Sur 0 851.5 0.1 32
2019-07-24 13:00:00 25.9 10 Sudeste 25 Sudeste 0 851.5 0.2 36
2019-07-24 12:00:00 25 9 Sudeste 21 Este 0 851.6 0.5 40
2019-07-24 11:00:00 23.5 8 Sudeste 19 Este 0 851.4 0.4 44
2019-07-24 10:00:00 22.3 6 Sudeste 16 Sudeste 0 851.3 0.5 48
2019-07-24 09:00:00 18.4 3 Nordeste 9 Este 0 851.1 0.3 54
2019-07-24 08:00:00 14.8 4 Nordeste 9 Nordeste 0 851 0.2 60
2019-07-24 07:00:00 15 3 Nordeste 9 Este 0 850.8 -0.3 59
2019-07-24 06:00:00 14.7 3 Nordeste 9 Sudeste 0 850.8 -1 60
2019-07-24 05:00:00 15.6 4 Norte 10 Nordeste 0 850.8 -1.5 55
2019-07-24 04:00:00 16.6 5 Este 13 Este 0 851.1 -1.5 53
2019-07-24 03:00:00 16.8 5 Nordeste 16 Este 0 851.8 -0.2 53
2019-07-24 02:00:00 16.6 5 Este 16 Este 0 852.3 -0.3 55
2019-07-24 01:00:00 17.3 9 Este 17 Este 0 852.6 1 55
2019-07-24 00:00:00 17.6 2 Noroeste 24 Sudeste 0 852 0.4 52
2019-07-23 23:00:00 18.2 3 Norte 19 Nordeste 0 852.6 1.7 47
2019-07-23 22:00:00 20.8 10 Sudeste 26 Sudeste 0 851.6 0.8 37
2019-07-23 21:00:00 21.9 17 Sudeste 44 Sudeste 0.1 851.6 0.1 36
2019-07-23 20:00:00 25.6 5 Sur 21 Sudeste 0.3 850.9 -1 35
2019-07-23 19:00:00 26.1 9 Sudeste 26 Sur 0.3 850.8 -1.6 32
2019-07-23 18:00:00 26.6 9 Sudeste 24 Sudeste 0.5 851.5 -1.1 33
2019-07-23 17:00:00 26.2 12 Sudeste 31 Sudeste 0.6 851.9 -0.3 35
2019-07-23 16:00:00 26 8 Sudeste 31 Sudeste 0.7 852.4 0.1 35
2019-07-23 15:00:00 25.2 13 Sudeste 28 Sur 0.7 852.6 0.2 36
2019-07-23 14:00:00 25 8 Sudeste 21 Este 0.5 852.2 -2 39
2019-07-23 13:00:00 23.1 5 Sudeste 19 Este 0.2 852.3 0.1 60
2019-07-23 12:00:00 15.9 0 Calma 19 Este 0.1 852.4 -0.1 90
2019-07-23 11:00:00 15 6 Sur 46 Sur 0.2 854.2 1.6 82
2019-07-23 10:00:00 19.2 4 Nordeste 11 Nordeste 0 852.2 -0.2 63
2019-07-23 09:00:00 16.2 4 Este 13 Nordeste 0.1 852.5 -2.4 86
2019-07-23 08:00:00 13.4 6 Nordeste 17 Nordeste 0 852.6 -1 92
2019-07-23 07:00:00 13.5 6 Este 26 Norte 0.1 852.4 0.1 94
2019-07-23 06:00:00 13.9 4 Oeste 18 Oeste 0 854.9 0.8 92
2019-07-23 05:00:00 15.4 6 Sur 43 Sudoeste 0.2 853.6 -1.3 79
2019-07-23 04:00:00 14.6 6 Este 26 Norte 0.1 852.3 -1.5 86
2019-07-23 03:00:00 13.7 9 Norte 22 Sudoeste 0.2 854.1 -0.2 95
2019-07-23 02:00:00 15.3 3 Este 12 Nordeste 0.3 854.9 -0.1 80
2019-07-23 01:00:00 14.5 4 Oeste 18 Sudoeste 0.3 853.8 -0.2 86
2019-07-23 00:00:00 15.2 3 Noroeste 46 Sudoeste 0.5 854.3 1.1 84
2019-07-22 23:00:00 21.5 27 Sur 61 Sur 0 855 2 40
2019-07-22 22:00:00 24.3 13 Sur 31 Sur 0 854 0.5 36
2019-07-22 21:00:00 25.8 8 Este 21 Este 0 853.2 -0.5 35
2019-07-22 20:00:00 26.7 9 Sudeste 24 Sudeste 0 853 -1.1 35
2019-07-22 19:00:00 27.3 11 Sudeste 28 Sur 0 853.5 -0.8 35
2019-07-22 18:00:00 26.7 11 Sudeste 28 Sudeste 0 853.7 -1 35
2019-07-22 17:00:00 27.7 14 Sudeste 35 Sudeste 0 854.1 -0.7 34
2019-07-22 16:00:00 28.2 15 Sudeste 34 Sudeste 0 854.3 -0.7 35
2019-07-22 15:00:00 28.2 14 Sudeste 32 Sudeste 0 854.7 -0.5 35
2019-07-22 14:00:00 28.6 11 Sudeste 25 Este 0 854.8 -0.4 35
2019-07-22 13:00:00 27.4 8 Este 23 Este 0 855 -0.2 36
2019-07-22 12:00:00 25.8 6 Este 18 Este 0 855.2 0.2 40
2019-07-22 11:00:00 22.6 9 Este 18 Este 0 855.2 0.6 44
2019-07-22 10:00:00 21.1 7 Este 21 Este 0 855.2 0.8 48
2019-07-22 09:00:00 18.7 5 Este 13 Este 0 855 0.5 56
2019-07-22 08:00:00 16.8 6 Este 11 Este 0 854.6 0 63
2019-07-22 07:00:00 16.2 6 Este 10 Este 0 854.4 -0.2 64
2019-07-22 06:00:00 16.5 4 Nordeste 8 Sudeste 0 854.5 -0.3 64
2019-07-22 05:00:00 17.6 3 Este 15 Nordeste 0 854.6 -0.1 60
2019-07-22 04:00:00 19.3 3 Este 17 Este 0 854.6 -0.5 54
2019-07-22 03:00:00 18.9 3 Nordeste 13 Nordeste 0 854.8 -0.1 48
2019-07-22 02:00:00 19.9 5 Nordeste 10 Norte 0 854.7 -0.1 45
2019-07-22 01:00:00 19.2 4 Norte 8 Nordeste 0 855.1 1.1 44
2019-07-22 00:00:00 19.7 0 Calma 4 Norte 0 854.9 1.2 43
2019-07-21 23:00:00 21 2 Nordeste 6 Norte 0 854.8 1.2 39
2019-07-21 22:00:00 23.5 2 Noroeste 6 Noroeste 0 854 0.5 35
2019-07-21 21:00:00 25.9 2 Sudoeste 12 Sur 0 853.7 -0.1 31
2019-07-21 20:00:00 27.9 5 Sudoeste 16 Oeste 0 853.6 -0.3 26
2019-07-21 19:00:00 29.6 5 Sur 22 Sudoeste 0 853.5 -0.8 27
2019-07-21 18:00:00 28.6 9 Sudeste 31 Sudeste 0 853.8 -0.5 29
2019-07-21 17:00:00 28.2 11 Sudeste 29 Sur 0 853.9 -0.5 31
2019-07-21 16:00:00 28.3 11 Sudeste 30 Sur 0 854.3 -0.1 32
2019-07-21 15:00:00 29.2 6 Sudoeste 24 Sudeste 0 854.3 0.3 31
2019-07-21 14:00:00 29.9 9 Sudoeste 27 Sur 0 854.4 0.7 32
2019-07-21 13:00:00 28.8 7 Sur 26 Sudoeste 0 854.4 1.2 33
2019-07-21 12:00:00 27.9 7 Sur 24 Sur 0 854 1.1 34
2019-07-21 11:00:00 26.6 7 Sur 16 Sur 0 853.7 1.1 35
2019-07-21 10:00:00 23.4 2 Sudeste 5 Este 0 853.2 0.7 45
2019-07-21 09:00:00 18.4 0 Calma 6 Este 0 852.9 0.4 56
2019-07-21 08:00:00 14.5 0 Calma 6 Norte 0 852.6 0.2 61
2019-07-21 07:00:00 14.1 4 Nordeste 7 Norte 0 852.5 0.2 62
2019-07-21 06:00:00 13.5 3 Este 6 Nordeste 0 852.5 -0.3 61
2019-07-21 05:00:00 14.3 2 Este 7 Este 0 852.4 -0.5 58
2019-07-21 04:00:00 14.3 3 Nordeste 7 Nordeste 0 852.3 -0.4 54
2019-07-21 03:00:00 14.7 3 Nordeste 7 Norte 0 852.8 0.2 52
2019-07-21 02:00:00 15 0 Calma 4 Nordeste 0 852.9 0.5 49
2019-07-21 01:00:00 16.5 0 Calma 5 Nordeste 0 852.7 1 44
2019-07-21 00:00:00 18.1 0 Calma 6 Nordeste 0 852.6 1.4 39
2019-07-20 23:00:00 19.5 2 Noroeste 6 Noroeste 0 852.4 1.5 33
2019-07-20 22:00:00 21.6 2 Oeste 11 Norte 0 851.7 1 29
2019-07-20 21:00:00 25.1 2 Este 13 Oeste 0 851.2 0.1 27
2019-07-20 20:00:00 26.9 4 Sudoeste 14 Sudoeste 0 850.9 -0.4 24
2019-07-20 19:00:00 28.8 5 Sudoeste 21 Sudoeste 0 850.7 -0.6 24
2019-07-20 18:00:00 29 3 Oeste 22 Sudoeste 0 851.1 -0.1 24
2019-07-20 17:00:00 29.2 8 Sudoeste 27 Sur 0 851.3 0.1 28
2019-07-20 16:00:00 29.1 7 Sur 26 Sudeste 0 851.3 0.5 29
2019-07-20 15:00:00 28.7 9 Sur 31 Sur 0 851.2 0.7 29
2019-07-20 14:00:00 28.2 10 Sur 31 Sur 0 851.2 1.1 28
2019-07-20 13:00:00 28.2 12 Sur 33 Sudoeste 0 850.8 1.1 25
2019-07-20 12:00:00 26.7 12 Sur 36 Sur 0 850.5 1.2 27
2019-07-20 11:00:00 25.9 10 Sur 27 Sur 0 850.1 0.9 33
2019-07-20 10:00:00 23 2 Sudeste 6 Nordeste 0 849.7 0.5 52
2019-07-20 09:00:00 17.9 2 Norte 7 Norte 0 849.3 0.3 68
2019-07-20 08:00:00 13.7 4 Norte 7 Norte 0 849.2 0.3 74
2019-07-20 07:00:00 12.6 0 Calma 6 Nordeste 0 849.2 0 74
2019-07-20 06:00:00 13.6 3 Este 7 Nordeste 0 849 -0.3 74
2019-07-20 05:00:00 13.8 3 Este 8 Nordeste 0 848.9 -0.8 71
2019-07-20 04:00:00 14.5 3 Norte 5 Norte 0 849.2 -0.8 69
2019-07-20 03:00:00 15.9 4 Norte 7 Noroeste 0 849.3 0.1 61
2019-07-20 02:00:00 17.1 4 Sudoeste 9 Sudoeste 0 849.7 0.6 53
2019-07-20 01:00:00 16.6 3 Sudoeste 9 Noroeste 0 850 1.2 48
2019-07-20 00:00:00 17.8 0 Calma 7 Norte 0 849.2 0.2 44
2019-07-19 23:00:00 19.6 4 Norte 6 Norte 0 849.1 0.3 41
2019-07-19 22:00:00 21.8 0 Calma 9 Sudoeste 0 848.8 -0.3 36
2019-07-19 21:00:00 24.4 4 Sudoeste 15 Oeste 0 849 -0.5 32
2019-07-19 20:00:00 26 3 Sudoeste 19 Sur 0 848.8 -1 32
2019-07-19 19:00:00 28.4 6 Sur 24 Sudoeste 0 849.1 -1 28
2019-07-19 18:00:00 28.3 8 Sur 29 Sudoeste 0 849.5 -0.8 29
2019-07-19 17:00:00 26.9 5 Sur 35 Sur 0 849.8 -0.9 29
2019-07-19 16:00:00 28.2 16 Sur 32 Sudeste 0 850.1 -0.5 29
2019-07-19 15:00:00 28 9 Sur 33 Sur 0 850.3 -0.3 31
2019-07-19 14:00:00 28.2 12 Sur 31 Sur 0 850.7 0.1 31
2019-07-19 13:00:00 27.9 13 Sur 27 Sudoeste 0 850.6 0.2 33
2019-07-19 12:00:00 25.5 11 Sudeste 31 Sur 0 850.6 0.4 38
2019-07-19 11:00:00 24.6 8 Sudeste 21 Sudeste 0 850.6 0.7 40
2019-07-19 10:00:00 22.6 3 Sudeste 5 Sudeste 0 850.4 0.5 44
2019-07-19 09:00:00 17.7 0 Calma 3 Este 0 850.2 0.6 54
2019-07-19 08:00:00 14.4 0 Calma 7 Nordeste 0 849.9 -0.2 51
2019-07-19 07:00:00 13.1 3 Nordeste 7 Nordeste 0 849.9 -0.3 52
2019-07-19 06:00:00 14 0 Calma 8 Nordeste 0 849.6 -1.1 49
2019-07-19 05:00:00 14.3 5 Nordeste 9 Este 0 850.1 -0.4 48
2019-07-19 04:00:00 14.4 3 Nordeste 7 Norte 0 850.2 -0.4 48
2019-07-19 03:00:00 15.1 4 Nordeste 5 Nordeste 0 850.7 0 47
2019-07-19 02:00:00 16.5 4 Nordeste 7 Nordeste 0 850.5 0 46
2019-07-19 01:00:00 17.7 2 Nordeste 8 Sudeste 0 850.6 0.5 45
2019-07-19 00:00:00 18.8 3 Este 7 Este 0 850.7 1.1 45